sensor_id;sensor_type;location;lat;lon;timestamp;P1;durP1;ratioP1;P2;durP2;ratioP2
72127;SDS011;60000;51.030;7.024;2023-09-12T00:00:36;9.30;;;4.60;;
72127;SDS011;60000;51.030;7.024;2023-09-12T00:03:01;8.00;;;4.30;;
72127;SDS011;60000;51.030;7.024;2023-09-12T00:05:27;7.40;;;3.90;;
72127;SDS011;60000;51.030;7.024;2023-09-12T00:07:52;8.93;;;4.10;;
72127;SDS011;60000;51.030;7.024;2023-09-12T00:10:20;9.10;;;4.30;;
72127;SDS011;60000;51.030;7.024;2023-09-12T00:12:46;9.07;;;4.30;;
72127;SDS011;60000;51.030;7.024;2023-09-12T00:15:11;7.93;;;3.67;;
72127;SDS011;60000;51.030;7.024;2023-09-12T00:17:37;6.82;;;3.65;;
72127;SDS011;60000;51.030;7.024;2023-09-12T00:20:03;8.53;;;3.53;;
72127;SDS011;60000;51.030;7.024;2023-09-12T00:22:31;7.97;;;3.65;;
72127;SDS011;60000;51.030;7.024;2023-09-12T00:24:56;6.57;;;3.03;;
72127;SDS011;60000;51.030;7.024;2023-09-12T00:27:22;7.97;;;3.13;;
72127;SDS011;60000;51.030;7.024;2023-09-12T00:29:47;8.13;;;3.40;;
72127;SDS011;60000;51.030;7.024;2023-09-12T00:32:12;6.73;;;3.20;;
72127;SDS011;60000;51.030;7.024;2023-09-12T00:34:38;6.97;;;3.60;;
72127;SDS011;60000;51.030;7.024;2023-09-12T00:37:03;7.35;;;3.30;;
72127;SDS011;60000;51.030;7.024;2023-09-12T00:39:29;6.60;;;2.80;;
72127;SDS011;60000;51.030;7.024;2023-09-12T00:41:55;6.00;;;2.85;;
72127;SDS011;60000;51.030;7.024;2023-09-12T00:44:20;6.93;;;2.67;;
72127;SDS011;60000;51.030;7.024;2023-09-12T00:46:46;7.03;;;3.50;;
72127;SDS011;60000;51.030;7.024;2023-09-12T00:49:14;6.43;;;2.70;;
72127;SDS011;60000;51.030;7.024;2023-09-12T00:51:41;8.35;;;2.88;;
72127;SDS011;60000;51.030;7.024;2023-09-12T00:54:07;5.85;;;2.75;;
72127;SDS011;60000;51.030;7.024;2023-09-12T00:56:33;7.25;;;3.20;;
72127;SDS011;60000;51.030;7.024;2023-09-12T00:58:58;5.80;;;2.80;;
72127;SDS011;60000;51.030;7.024;2023-09-12T01:01:24;6.63;;;2.90;;
72127;SDS011;60000;51.030;7.024;2023-09-12T01:03:49;5.50;;;2.60;;
72127;SDS011;60000;51.030;7.024;2023-09-12T01:06:15;5.60;;;2.60;;
72127;SDS011;60000;51.030;7.024;2023-09-12T01:08:47;6.45;;;2.55;;
72127;SDS011;60000;51.030;7.024;2023-09-12T01:11:13;7.57;;;2.83;;
72127;SDS011;60000;51.030;7.024;2023-09-12T01:13:39;6.50;;;2.72;;
72127;SDS011;60000;51.030;7.024;2023-09-12T01:16:04;7.80;;;2.73;;
72127;SDS011;60000;51.030;7.024;2023-09-12T01:18:29;6.37;;;2.43;;
72127;SDS011;60000;51.030;7.024;2023-09-12T01:29:20;6.20;;;2.30;;
72127;SDS011;60000;51.030;7.024;2023-09-12T01:31:47;5.32;;;2.10;;
72127;SDS011;60000;51.030;7.024;2023-09-12T01:36:41;6.80;;;2.15;;
72127;SDS011;60000;51.030;7.024;2023-09-12T01:39:06;5.10;;;2.23;;
72127;SDS011;60000;51.030;7.024;2023-09-12T01:41:32;5.10;;;2.17;;
72127;SDS011;60000;51.030;7.024;2023-09-12T01:44:03;4.93;;;2.20;;
72127;SDS011;60000;51.030;7.024;2023-09-12T01:46:30;5.80;;;2.50;;
72127;SDS011;60000;51.030;7.024;2023-09-12T01:48:59;6.40;;;2.50;;
72127;SDS011;60000;51.030;7.024;2023-09-12T01:51:25;9.68;;;2.70;;
72127;SDS011;60000;51.030;7.024;2023-09-12T01:53:51;6.90;;;2.78;;
72127;SDS011;60000;51.030;7.024;2023-09-12T01:56:18;5.60;;;2.08;;
72127;SDS011;60000;51.030;7.024;2023-09-12T01:58:45;5.30;;;2.50;;
72127;SDS011;60000;51.030;7.024;2023-09-12T02:01:11;8.48;;;3.20;;
72127;SDS011;60000;51.030;7.024;2023-09-12T02:03:36;6.17;;;3.00;;
72127;SDS011;60000;51.030;7.024;2023-09-12T02:06:01;5.73;;;2.63;;
72127;SDS011;60000;51.030;7.024;2023-09-12T02:08:26;6.53;;;3.00;;
72127;SDS011;60000;51.030;7.024;2023-09-12T02:10:52;5.83;;;2.70;;
72127;SDS011;60000;51.030;7.024;2023-09-12T02:13:17;6.03;;;2.33;;
72127;SDS011;60000;51.030;7.024;2023-09-12T02:15:42;8.53;;;3.03;;
72127;SDS011;60000;51.030;7.024;2023-09-12T02:18:08;6.47;;;2.50;;
72127;SDS011;60000;51.030;7.024;2023-09-12T02:20:37;5.40;;;2.50;;
72127;SDS011;60000;51.030;7.024;2023-09-12T02:23:03;5.23;;;2.40;;
72127;SDS011;60000;51.030;7.024;2023-09-12T02:25:29;5.60;;;2.47;;
72127;SDS011;60000;51.030;7.024;2023-09-12T02:27:54;6.75;;;2.40;;
72127;SDS011;60000;51.030;7.024;2023-09-12T02:30:19;5.77;;;2.50;;
72127;SDS011;60000;51.030;7.024;2023-09-12T02:32:45;4.97;;;2.10;;
72127;SDS011;60000;51.030;7.024;2023-09-12T02:35:10;6.10;;;2.70;;
72127;SDS011;60000;51.030;7.024;2023-09-12T02:37:35;6.43;;;2.70;;
72127;SDS011;60000;51.030;7.024;2023-09-12T02:40:01;4.93;;;2.30;;
72127;SDS011;60000;51.030;7.024;2023-09-12T02:42:28;6.47;;;2.20;;
72127;SDS011;60000;51.030;7.024;2023-09-12T02:44:54;5.53;;;2.20;;
72127;SDS011;60000;51.030;7.024;2023-09-12T02:47:19;5.40;;;2.33;;
72127;SDS011;60000;51.030;7.024;2023-09-12T02:49:44;6.10;;;2.80;;
72127;SDS011;60000;51.030;7.024;2023-09-12T02:52:10;8.37;;;2.97;;
72127;SDS011;60000;51.030;7.024;2023-09-12T02:54:35;8.57;;;3.20;;
72127;SDS011;60000;51.030;7.024;2023-09-12T02:57:00;6.50;;;3.10;;
72127;SDS011;60000;51.030;7.024;2023-09-12T02:59:26;8.13;;;3.10;;
72127;SDS011;60000;51.030;7.024;2023-09-12T03:01:51;6.80;;;3.30;;
72127;SDS011;60000;51.030;7.024;2023-09-12T03:04:16;7.70;;;3.13;;
72127;SDS011;60000;51.030;7.024;2023-09-12T03:06:42;7.53;;;3.60;;
72127;SDS011;60000;51.030;7.024;2023-09-12T03:09:08;7.53;;;3.35;;
72127;SDS011;60000;51.030;7.024;2023-09-12T03:11:34;7.33;;;3.70;;
72127;SDS011;60000;51.030;7.024;2023-09-12T03:13:59;6.85;;;3.08;;
72127;SDS011;60000;51.030;7.024;2023-09-12T03:16:24;7.30;;;2.90;;
72127;SDS011;60000;51.030;7.024;2023-09-12T03:18:50;6.13;;;2.80;;
72127;SDS011;60000;51.030;7.024;2023-09-12T03:21:16;8.07;;;3.35;;
72127;SDS011;60000;51.030;7.024;2023-09-12T03:23:41;6.47;;;3.10;;
72127;SDS011;60000;51.030;7.024;2023-09-12T03:26:06;7.57;;;2.90;;
72127;SDS011;60000;51.030;7.024;2023-09-12T03:28:32;6.50;;;2.70;;
72127;SDS011;60000;51.030;7.024;2023-09-12T03:31:08;7.05;;;3.10;;
72127;SDS011;60000;51.030;7.024;2023-09-12T03:33:36;6.25;;;2.80;;
72127;SDS011;60000;51.030;7.024;2023-09-12T03:36:02;6.43;;;2.80;;
72127;SDS011;60000;51.030;7.024;2023-09-12T03:38:28;5.75;;;2.70;;
72127;SDS011;60000;51.030;7.024;2023-09-12T03:40:53;8.90;;;3.50;;
72127;SDS011;60000;51.030;7.024;2023-09-12T03:43:19;8.83;;;3.50;;
72127;SDS011;60000;51.030;7.024;2023-09-12T03:45:44;6.03;;;3.23;;
72127;SDS011;60000;51.030;7.024;2023-09-12T03:48:09;7.63;;;3.43;;
72127;SDS011;60000;51.030;7.024;2023-09-12T03:50:35;7.47;;;3.63;;
72127;SDS011;60000;51.030;7.024;2023-09-12T03:53:00;8.73;;;3.40;;
72127;SDS011;60000;51.030;7.024;2023-09-12T03:55:25;8.17;;;3.03;;
72127;SDS011;60000;51.030;7.024;2023-09-12T03:57:50;6.77;;;3.40;;
72127;SDS011;60000;51.030;7.024;2023-09-12T04:00:16;7.20;;;3.27;;
72127;SDS011;60000;51.030;7.024;2023-09-12T04:02:41;6.33;;;3.13;;
72127;SDS011;60000;51.030;7.024;2023-09-12T04:05:07;6.30;;;2.83;;
72127;SDS011;60000;51.030;7.024;2023-09-12T04:07:32;6.78;;;2.70;;
72127;SDS011;60000;51.030;7.024;2023-09-12T04:09:57;6.77;;;3.00;;
72127;SDS011;60000;51.030;7.024;2023-09-12T04:12:23;7.17;;;3.00;;
72127;SDS011;60000;51.030;7.024;2023-09-12T04:14:52;6.67;;;2.97;;
72127;SDS011;60000;51.030;7.024;2023-09-12T04:17:17;6.57;;;2.92;;
72127;SDS011;60000;51.030;7.024;2023-09-12T04:19:43;6.50;;;2.80;;
72127;SDS011;60000;51.030;7.024;2023-09-12T04:22:08;6.70;;;3.10;;
72127;SDS011;60000;51.030;7.024;2023-09-12T04:24:33;5.87;;;2.80;;
72127;SDS011;60000;51.030;7.024;2023-09-12T04:26:58;7.53;;;3.50;;
72127;SDS011;60000;51.030;7.024;2023-09-12T04:29:24;6.23;;;3.17;;
72127;SDS011;60000;51.030;7.024;2023-09-12T04:31:49;6.67;;;2.67;;
72127;SDS011;60000;51.030;7.024;2023-09-12T04:34:15;6.20;;;2.80;;
72127;SDS011;60000;51.030;7.024;2023-09-12T04:36:40;6.07;;;2.97;;
72127;SDS011;60000;51.030;7.024;2023-09-12T04:39:05;7.23;;;3.33;;
72127;SDS011;60000;51.030;7.024;2023-09-12T04:41:31;8.27;;;3.93;;
72127;SDS011;60000;51.030;7.024;2023-09-12T04:43:56;8.47;;;3.60;;
72127;SDS011;60000;51.030;7.024;2023-09-12T04:46:23;6.88;;;3.65;;
72127;SDS011;60000;51.030;7.024;2023-09-12T04:48:49;6.53;;;3.57;;
72127;SDS011;60000;51.030;7.024;2023-09-12T04:51:14;7.10;;;3.40;;
72127;SDS011;60000;51.030;7.024;2023-09-12T04:53:39;7.50;;;3.70;;
72127;SDS011;60000;51.030;7.024;2023-09-12T04:56:05;8.73;;;4.05;;
72127;SDS011;60000;51.030;7.024;2023-09-12T04:58:31;7.18;;;3.42;;
72127;SDS011;60000;51.030;7.024;2023-09-12T05:00:57;7.73;;;3.60;;
72127;SDS011;60000;51.030;7.024;2023-09-12T05:03:22;7.83;;;4.00;;
72127;SDS011;60000;51.030;7.024;2023-09-12T05:05:48;7.83;;;3.37;;
72127;SDS011;60000;51.030;7.024;2023-09-12T05:08:15;8.13;;;3.65;;
72127;SDS011;60000;51.030;7.024;2023-09-12T05:10:40;7.80;;;3.20;;
72127;SDS011;60000;51.030;7.024;2023-09-12T05:13:05;7.13;;;3.17;;
72127;SDS011;60000;51.030;7.024;2023-09-12T05:15:31;6.00;;;3.00;;
72127;SDS011;60000;51.030;7.024;2023-09-12T05:17:56;6.00;;;3.00;;
72127;SDS011;60000;51.030;7.024;2023-09-12T05:20:22;6.40;;;2.90;;
72127;SDS011;60000;51.030;7.024;2023-09-12T05:22:47;7.25;;;3.25;;
72127;SDS011;60000;51.030;7.024;2023-09-12T05:25:13;6.80;;;3.00;;
72127;SDS011;60000;51.030;7.024;2023-09-12T05:27:38;6.27;;;2.47;;
72127;SDS011;60000;51.030;7.024;2023-09-12T05:30:04;7.30;;;3.10;;
72127;SDS011;60000;51.030;7.024;2023-09-12T05:32:29;7.40;;;2.75;;
72127;SDS011;60000;51.030;7.024;2023-09-12T05:34:55;6.55;;;2.83;;
72127;SDS011;60000;51.030;7.024;2023-09-12T05:37:21;6.17;;;2.90;;
72127;SDS011;60000;51.030;7.024;2023-09-12T05:39:46;6.70;;;2.83;;
72127;SDS011;60000;51.030;7.024;2023-09-12T05:42:11;7.80;;;4.17;;
72127;SDS011;60000;51.030;7.024;2023-09-12T05:44:38;9.23;;;3.55;;
72127;SDS011;60000;51.030;7.024;2023-09-12T05:47:03;8.30;;;3.70;;
72127;SDS011;60000;51.030;7.024;2023-09-12T05:49:29;6.33;;;3.27;;
72127;SDS011;60000;51.030;7.024;2023-09-12T05:51:54;14.32;;;3.97;;
72127;SDS011;60000;51.030;7.024;2023-09-12T05:54:19;7.87;;;4.23;;
72127;SDS011;60000;51.030;7.024;2023-09-12T05:56:45;9.57;;;3.80;;
72127;SDS011;60000;51.030;7.024;2023-09-12T05:59:12;10.45;;;3.45;;
72127;SDS011;60000;51.030;7.024;2023-09-12T06:01:37;7.73;;;3.03;;
72127;SDS011;60000;51.030;7.024;2023-09-12T06:04:04;7.47;;;3.47;;
72127;SDS011;60000;51.030;7.024;2023-09-12T06:06:29;7.20;;;3.53;;
72127;SDS011;60000;51.030;7.024;2023-09-12T06:08:55;8.17;;;3.70;;
72127;SDS011;60000;51.030;7.024;2023-09-12T06:11:20;7.25;;;3.72;;
72127;SDS011;60000;51.030;7.024;2023-09-12T06:13:46;7.93;;;3.60;;
72127;SDS011;60000;51.030;7.024;2023-09-12T06:16:11;7.43;;;3.83;;
72127;SDS011;60000;51.030;7.024;2023-09-12T06:18:36;7.57;;;3.53;;
72127;SDS011;60000;51.030;7.024;2023-09-12T06:21:01;9.10;;;4.07;;
72127;SDS011;60000;51.030;7.024;2023-09-12T06:23:29;8.13;;;4.00;;
72127;SDS011;60000;51.030;7.024;2023-09-12T06:25:55;8.70;;;4.20;;
72127;SDS011;60000;51.030;7.024;2023-09-12T06:28:30;9.57;;;4.50;;
72127;SDS011;60000;51.030;7.024;2023-09-12T06:30:56;13.85;;;6.93;;
72127;SDS011;60000;51.030;7.024;2023-09-12T06:33:22;15.50;;;7.70;;
72127;SDS011;60000;51.030;7.024;2023-09-12T06:35:51;16.53;;;8.23;;
72127;SDS011;60000;51.030;7.024;2023-09-12T06:38:17;16.02;;;8.13;;
72127;SDS011;60000;51.030;7.024;2023-09-12T06:40:43;13.45;;;6.80;;
72127;SDS011;60000;51.030;7.024;2023-09-12T06:43:09;12.80;;;7.40;;
72127;SDS011;60000;51.030;7.024;2023-09-12T06:45:34;12.50;;;7.33;;
72127;SDS011;60000;51.030;7.024;2023-09-12T06:48:02;13.38;;;7.70;;
72127;SDS011;60000;51.030;7.024;2023-09-12T06:50:28;14.93;;;7.20;;
72127;SDS011;60000;51.030;7.024;2023-09-12T06:52:53;12.43;;;6.07;;
72127;SDS011;60000;51.030;7.024;2023-09-12T06:55:19;12.10;;;6.90;;
72127;SDS011;60000;51.030;7.024;2023-09-12T06:57:44;11.97;;;6.77;;
72127;SDS011;60000;51.030;7.024;2023-09-12T07:00:10;11.40;;;6.13;;
72127;SDS011;60000;51.030;7.024;2023-09-12T07:02:36;12.88;;;6.45;;
72127;SDS011;60000;51.030;7.024;2023-09-12T07:05:01;10.50;;;5.37;;
72127;SDS011;60000;51.030;7.024;2023-09-12T07:07:29;10.00;;;5.50;;
72127;SDS011;60000;51.030;7.024;2023-09-12T07:09:54;12.00;;;5.63;;
72127;SDS011;60000;51.030;7.024;2023-09-12T07:12:20;12.10;;;5.57;;
72127;SDS011;60000;51.030;7.024;2023-09-12T07:14:45;10.80;;;5.00;;
72127;SDS011;60000;51.030;7.024;2023-09-12T07:17:11;11.20;;;4.93;;
72127;SDS011;60000;51.030;7.024;2023-09-12T07:22:24;10.43;;;4.38;;
72127;SDS011;60000;51.030;7.024;2023-09-12T07:24:51;9.13;;;4.50;;
72127;SDS011;60000;51.030;7.024;2023-09-12T07:27:16;8.90;;;4.57;;
72127;SDS011;60000;51.030;7.024;2023-09-12T07:29:41;8.33;;;4.07;;
72127;SDS011;60000;51.030;7.024;2023-09-12T07:32:06;9.43;;;4.10;;
72127;SDS011;60000;51.030;7.024;2023-09-12T07:34:32;8.13;;;4.83;;
72127;SDS011;60000;51.030;7.024;2023-09-12T07:36:58;10.20;;;4.13;;
72127;SDS011;60000;51.030;7.024;2023-09-12T07:39:23;10.02;;;3.90;;
72127;SDS011;60000;51.030;7.024;2023-09-12T07:41:48;8.47;;;4.10;;
72127;SDS011;60000;51.030;7.024;2023-09-12T07:44:14;8.77;;;3.90;;
72127;SDS011;60000;51.030;7.024;2023-09-12T07:46:41;7.47;;;3.92;;
72127;SDS011;60000;51.030;7.024;2023-09-12T07:49:07;8.57;;;3.60;;
72127;SDS011;60000;51.030;7.024;2023-09-12T07:51:34;9.57;;;3.70;;
72127;SDS011;60000;51.030;7.024;2023-09-12T07:54:00;7.47;;;3.78;;
72127;SDS011;60000;51.030;7.024;2023-09-12T07:56:25;7.47;;;3.60;;
72127;SDS011;60000;51.030;7.024;2023-09-12T07:58:51;6.50;;;3.40;;
72127;SDS011;60000;51.030;7.024;2023-09-12T08:01:16;8.33;;;3.57;;
72127;SDS011;60000;51.030;7.024;2023-09-12T08:03:42;9.20;;;3.60;;
72127;SDS011;60000;51.030;7.024;2023-09-12T08:06:08;6.45;;;3.03;;
72127;SDS011;60000;51.030;7.024;2023-09-12T08:08:33;7.10;;;3.50;;
72127;SDS011;60000;51.030;7.024;2023-09-12T08:10:59;6.40;;;3.17;;
72127;SDS011;60000;51.030;7.024;2023-09-12T08:13:26;7.40;;;3.23;;
72127;SDS011;60000;51.030;7.024;2023-09-12T08:15:52;7.07;;;3.22;;
72127;SDS011;60000;51.030;7.024;2023-09-12T08:18:18;7.33;;;3.30;;
72127;SDS011;60000;51.030;7.024;2023-09-12T08:20:43;6.57;;;3.43;;
72127;SDS011;60000;51.030;7.024;2023-09-12T08:23:09;7.97;;;3.70;;
72127;SDS011;60000;51.030;7.024;2023-09-12T08:25:34;7.10;;;3.30;;
72127;SDS011;60000;51.030;7.024;2023-09-12T08:28:00;6.33;;;3.40;;
72127;SDS011;60000;51.030;7.024;2023-09-12T08:30:25;6.27;;;3.57;;
72127;SDS011;60000;51.030;7.024;2023-09-12T08:32:50;6.37;;;3.10;;
72127;SDS011;60000;51.030;7.024;2023-09-12T08:35:16;7.10;;;3.55;;
72127;SDS011;60000;51.030;7.024;2023-09-12T08:37:41;7.33;;;3.70;;
72127;SDS011;60000;51.030;7.024;2023-09-12T08:40:08;8.52;;;3.92;;
72127;SDS011;60000;51.030;7.024;2023-09-12T08:42:42;8.75;;;3.80;;
72127;SDS011;60000;51.030;7.024;2023-09-12T08:45:12;7.90;;;3.50;;
72127;SDS011;60000;51.030;7.024;2023-09-12T08:47:43;6.30;;;3.33;;
72127;SDS011;60000;51.030;7.024;2023-09-12T08:50:14;11.20;;;4.80;;
72127;SDS011;60000;51.030;7.024;2023-09-12T08:52:41;7.97;;;3.92;;
72127;SDS011;60000;51.030;7.024;2023-09-12T08:55:09;8.38;;;3.63;;
72127;SDS011;60000;51.030;7.024;2023-09-12T08:57:39;7.97;;;3.85;;
72127;SDS011;60000;51.030;7.024;2023-09-12T09:00:06;6.80;;;3.90;;
72127;SDS011;60000;51.030;7.024;2023-09-12T09:02:34;9.60;;;4.00;;
72127;SDS011;60000;51.030;7.024;2023-09-12T09:05:01;9.38;;;4.38;;
72127;SDS011;60000;51.030;7.024;2023-09-12T09:07:29;7.63;;;4.05;;
72127;SDS011;60000;51.030;7.024;2023-09-12T09:09:58;10.85;;;4.22;;
72127;SDS011;60000;51.030;7.024;2023-09-12T09:12:26;8.73;;;4.50;;
72127;SDS011;60000;51.030;7.024;2023-09-12T09:14:52;9.98;;;4.45;;
72127;SDS011;60000;51.030;7.024;2023-09-12T09:17:18;9.37;;;4.20;;
72127;SDS011;60000;51.030;7.024;2023-09-12T09:19:44;7.53;;;4.15;;
72127;SDS011;60000;51.030;7.024;2023-09-12T09:22:10;7.47;;;3.70;;
72127;SDS011;60000;51.030;7.024;2023-09-12T09:24:35;9.47;;;4.13;;
72127;SDS011;60000;51.030;7.024;2023-09-12T09:27:00;7.43;;;3.80;;
72127;SDS011;60000;51.030;7.024;2023-09-12T09:29:26;12.77;;;4.07;;
72127;SDS011;60000;51.030;7.024;2023-09-12T09:31:58;8.35;;;3.95;;
72127;SDS011;60000;51.030;7.024;2023-09-12T09:34:25;7.40;;;3.92;;
72127;SDS011;60000;51.030;7.024;2023-09-12T09:36:55;9.18;;;3.80;;
72127;SDS011;60000;51.030;7.024;2023-09-12T09:39:25;8.20;;;4.37;;
72127;SDS011;60000;51.030;7.024;2023-09-12T09:41:55;8.32;;;3.70;;
72127;SDS011;60000;51.030;7.024;2023-09-12T09:44:22;9.82;;;4.20;;
72127;SDS011;60000;51.030;7.024;2023-09-12T09:46:51;7.47;;;4.20;;
72127;SDS011;60000;51.030;7.024;2023-09-12T09:49:19;9.90;;;6.18;;
72127;SDS011;60000;51.030;7.024;2023-09-12T09:51:46;13.03;;;7.70;;
72127;SDS011;60000;51.030;7.024;2023-09-12T09:54:11;9.90;;;5.95;;
72127;SDS011;60000;51.030;7.024;2023-09-12T09:56:53;11.83;;;6.93;;
72127;SDS011;60000;51.030;7.024;2023-09-12T09:59:23;10.20;;;4.25;;
72127;SDS011;60000;51.030;7.024;2023-09-12T10:01:50;6.32;;;2.90;;
72127;SDS011;60000;51.030;7.024;2023-09-12T10:04:19;7.28;;;3.28;;
72127;SDS011;60000;51.030;7.024;2023-09-12T10:06:46;7.22;;;3.20;;
72127;SDS011;60000;51.030;7.024;2023-09-12T10:09:13;6.47;;;2.67;;
72127;SDS011;60000;51.030;7.024;2023-09-12T10:11:39;5.72;;;2.60;;
72127;SDS011;60000;51.030;7.024;2023-09-12T10:14:06;5.93;;;2.90;;
72127;SDS011;60000;51.030;7.024;2023-09-12T10:16:33;6.78;;;2.90;;
72127;SDS011;60000;51.030;7.024;2023-09-12T10:19:20;6.65;;;3.10;;
72127;SDS011;60000;51.030;7.024;2023-09-12T10:21:50;7.60;;;3.00;;
72127;SDS011;60000;51.030;7.024;2023-09-12T10:24:28;7.05;;;3.20;;
72127;SDS011;60000;51.030;7.024;2023-09-12T10:26:55;9.00;;;3.00;;
72127;SDS011;60000;51.030;7.024;2023-09-12T10:29:22;7.20;;;2.90;;
72127;SDS011;60000;51.030;7.024;2023-09-12T10:31:48;9.53;;;3.10;;
72127;SDS011;60000;51.030;7.024;2023-09-12T10:34:14;8.68;;;3.03;;
72127;SDS011;60000;51.030;7.024;2023-09-12T10:36:40;5.70;;;2.60;;
72127;SDS011;60000;51.030;7.024;2023-09-12T10:39:07;6.20;;;2.75;;
72127;SDS011;60000;51.030;7.024;2023-09-12T10:41:35;8.40;;;2.93;;
72127;SDS011;60000;51.030;7.024;2023-09-12T10:44:02;7.53;;;4.07;;
72127;SDS011;60000;51.030;7.024;2023-09-12T10:46:51;7.85;;;3.30;;
72127;SDS011;60000;51.030;7.024;2023-09-12T10:49:18;6.95;;;3.30;;
72127;SDS011;60000;51.030;7.024;2023-09-12T10:51:45;8.20;;;3.20;;
72127;SDS011;60000;51.030;7.024;2023-09-12T10:54:53;7.20;;;3.03;;
72127;SDS011;60000;51.030;7.024;2023-09-12T10:57:04;6.18;;;3.38;;
72127;SDS011;60000;51.030;7.024;2023-09-12T10:59:36;7.78;;;3.53;;
72127;SDS011;60000;51.030;7.024;2023-09-12T11:04:56;6.97;;;3.72;;
72127;SDS011;60000;51.030;7.024;2023-09-12T11:10:24;6.90;;;3.25;;
72127;SDS011;60000;51.030;7.024;2023-09-12T11:12:58;8.37;;;3.60;;
72127;SDS011;60000;51.030;7.024;2023-09-12T11:15:25;7.18;;;3.40;;
72127;SDS011;60000;51.030;7.024;2023-09-12T11:18:02;7.45;;;3.90;;
72127;SDS011;60000;51.030;7.024;2023-09-12T11:20:49;9.45;;;5.75;;
72127;SDS011;60000;51.030;7.024;2023-09-12T11:23:14;8.98;;;4.72;;
72127;SDS011;60000;51.030;7.024;2023-09-12T11:25:39;9.40;;;5.77;;
72127;SDS011;60000;51.030;7.024;2023-09-12T11:28:05;10.37;;;5.80;;
72127;SDS011;60000;51.030;7.024;2023-09-12T11:30:30;12.17;;;4.47;;
72127;SDS011;60000;51.030;7.024;2023-09-12T11:32:56;8.65;;;3.40;;
72127;SDS011;60000;51.030;7.024;2023-09-12T11:35:23;6.97;;;3.70;;
72127;SDS011;60000;51.030;7.024;2023-09-12T11:37:50;6.88;;;2.83;;
72127;SDS011;60000;51.030;7.024;2023-09-12T11:40:17;7.03;;;3.42;;
72127;SDS011;60000;51.030;7.024;2023-09-12T11:42:47;7.55;;;3.22;;
72127;SDS011;60000;51.030;7.024;2023-09-12T11:45:14;7.32;;;3.53;;
72127;SDS011;60000;51.030;7.024;2023-09-12T11:47:43;8.40;;;3.30;;
72127;SDS011;60000;51.030;7.024;2023-09-12T11:50:26;6.10;;;2.95;;
72127;SDS011;60000;51.030;7.024;2023-09-12T11:55:34;6.90;;;3.08;;
72127;SDS011;60000;51.030;7.024;2023-09-12T11:58:08;7.50;;;3.22;;
72127;SDS011;60000;51.030;7.024;2023-09-12T12:00:33;7.57;;;3.40;;
72127;SDS011;60000;51.030;7.024;2023-09-12T12:02:59;8.97;;;4.43;;
72127;SDS011;60000;51.030;7.024;2023-09-12T12:05:24;8.27;;;4.25;;
72127;SDS011;60000;51.030;7.024;2023-09-12T12:07:50;10.63;;;4.50;;
72127;SDS011;60000;51.030;7.024;2023-09-12T12:10:16;7.03;;;3.57;;
72127;SDS011;60000;51.030;7.024;2023-09-12T12:12:43;7.90;;;3.80;;
72127;SDS011;60000;51.030;7.024;2023-09-12T12:15:11;7.70;;;3.85;;
72127;SDS011;60000;51.030;7.024;2023-09-12T12:17:36;8.10;;;3.97;;
72127;SDS011;60000;51.030;7.024;2023-09-12T12:20:06;7.65;;;4.00;;
72127;SDS011;60000;51.030;7.024;2023-09-12T12:22:35;7.07;;;3.75;;
72127;SDS011;60000;51.030;7.024;2023-09-12T12:25:08;9.32;;;4.35;;
72127;SDS011;60000;51.030;7.024;2023-09-12T12:27:38;9.03;;;4.07;;
72127;SDS011;60000;51.030;7.024;2023-09-12T12:30:05;8.70;;;4.05;;
72127;SDS011;60000;51.030;7.024;2023-09-12T12:32:32;7.40;;;3.70;;
72127;SDS011;60000;51.030;7.024;2023-09-12T12:34:58;7.53;;;3.60;;
72127;SDS011;60000;51.030;7.024;2023-09-12T12:37:28;6.93;;;4.00;;
72127;SDS011;60000;51.030;7.024;2023-09-12T12:39:55;8.23;;;3.45;;
72127;SDS011;60000;51.030;7.024;2023-09-12T12:42:20;7.40;;;3.37;;
72127;SDS011;60000;51.030;7.024;2023-09-12T12:44:52;7.60;;;3.28;;
72127;SDS011;60000;51.030;7.024;2023-09-12T12:47:17;6.68;;;3.38;;
72127;SDS011;60000;51.030;7.024;2023-09-12T12:49:43;6.73;;;3.13;;
72127;SDS011;60000;51.030;7.024;2023-09-12T12:52:11;9.67;;;3.77;;
72127;SDS011;60000;51.030;7.024;2023-09-12T12:54:37;7.78;;;3.72;;
72127;SDS011;60000;51.030;7.024;2023-09-12T12:57:02;8.70;;;3.20;;
72127;SDS011;60000;51.030;7.024;2023-09-12T12:59:28;8.60;;;3.63;;
72127;SDS011;60000;51.030;7.024;2023-09-12T13:01:55;7.03;;;3.28;;
72127;SDS011;60000;51.030;7.024;2023-09-12T13:04:20;7.28;;;3.90;;
72127;SDS011;60000;51.030;7.024;2023-09-12T13:06:46;7.23;;;3.53;;
72127;SDS011;60000;51.030;7.024;2023-09-12T13:09:11;6.10;;;3.10;;
72127;SDS011;60000;51.030;7.024;2023-09-12T13:11:37;6.05;;;3.50;;
72127;SDS011;60000;51.030;7.024;2023-09-12T13:14:03;6.88;;;3.60;;
72127;SDS011;60000;51.030;7.024;2023-09-12T13:16:34;6.83;;;2.90;;
72127;SDS011;60000;51.030;7.024;2023-09-12T13:18:59;7.13;;;3.90;;
72127;SDS011;60000;51.030;7.024;2023-09-12T13:21:25;7.20;;;3.20;;
72127;SDS011;60000;51.030;7.024;2023-09-12T13:23:50;6.87;;;3.00;;
72127;SDS011;60000;51.030;7.024;2023-09-12T13:26:16;5.27;;;2.73;;
72127;SDS011;60000;51.030;7.024;2023-09-12T13:28:41;5.88;;;3.20;;
72127;SDS011;60000;51.030;7.024;2023-09-12T13:31:07;6.47;;;3.10;;
72127;SDS011;60000;51.030;7.024;2023-09-12T13:33:32;7.50;;;3.17;;
72127;SDS011;60000;51.030;7.024;2023-09-12T13:35:58;6.95;;;2.97;;
72127;SDS011;60000;51.030;7.024;2023-09-12T13:38:23;8.73;;;3.33;;
72127;SDS011;60000;51.030;7.024;2023-09-12T13:40:49;6.70;;;3.07;;
72127;SDS011;60000;51.030;7.024;2023-09-12T13:43:14;6.47;;;2.90;;
72127;SDS011;60000;51.030;7.024;2023-09-12T13:45:40;6.38;;;3.10;;
72127;SDS011;60000;51.030;7.024;2023-09-12T13:48:05;6.07;;;2.90;;
72127;SDS011;60000;51.030;7.024;2023-09-12T13:50:31;7.50;;;3.20;;
72127;SDS011;60000;51.030;7.024;2023-09-12T13:53:01;6.30;;;2.90;;
72127;SDS011;60000;51.030;7.024;2023-09-12T13:55:33;6.33;;;2.80;;
72127;SDS011;60000;51.030;7.024;2023-09-12T13:58:01;5.78;;;2.85;;
72127;SDS011;60000;51.030;7.024;2023-09-12T14:00:27;7.72;;;3.13;;
72127;SDS011;60000;51.030;7.024;2023-09-12T14:02:52;8.30;;;3.17;;
72127;SDS011;60000;51.030;7.024;2023-09-12T14:05:18;7.03;;;2.80;;
72127;SDS011;60000;51.030;7.024;2023-09-12T14:07:45;7.45;;;3.40;;
72127;SDS011;60000;51.030;7.024;2023-09-12T14:10:11;6.30;;;3.03;;
72127;SDS011;60000;51.030;7.024;2023-09-12T14:12:37;6.55;;;3.25;;
72127;SDS011;60000;51.030;7.024;2023-09-12T14:15:03;6.33;;;2.80;;
72127;SDS011;60000;51.030;7.024;2023-09-12T14:17:30;7.63;;;3.25;;
72127;SDS011;60000;51.030;7.024;2023-09-12T14:19:56;7.67;;;3.27;;
72127;SDS011;60000;51.030;7.024;2023-09-12T14:22:21;6.10;;;3.33;;
72127;SDS011;60000;51.030;7.024;2023-09-12T14:24:47;6.65;;;3.13;;
72127;SDS011;60000;51.030;7.024;2023-09-12T14:27:12;8.70;;;3.10;;
72127;SDS011;60000;51.030;7.024;2023-09-12T14:29:37;6.83;;;3.03;;
72127;SDS011;60000;51.030;7.024;2023-09-12T14:32:03;7.22;;;3.35;;
72127;SDS011;60000;51.030;7.024;2023-09-12T14:34:29;6.67;;;3.07;;
72127;SDS011;60000;51.030;7.024;2023-09-12T14:36:56;8.10;;;2.80;;
72127;SDS011;60000;51.030;7.024;2023-09-12T14:39:22;9.13;;;3.20;;
72127;SDS011;60000;51.030;7.024;2023-09-12T14:41:48;6.93;;;3.40;;
72127;SDS011;60000;51.030;7.024;2023-09-12T14:44:17;5.88;;;2.92;;
72127;SDS011;60000;51.030;7.024;2023-09-12T14:46:43;7.38;;;3.05;;
72127;SDS011;60000;51.030;7.024;2023-09-12T14:49:12;8.18;;;3.05;;
72127;SDS011;60000;51.030;7.024;2023-09-12T14:51:37;5.72;;;2.90;;
72127;SDS011;60000;51.030;7.024;2023-09-12T14:54:02;5.60;;;2.80;;
72127;SDS011;60000;51.030;7.024;2023-09-12T14:56:29;6.10;;;2.80;;
72127;SDS011;60000;51.030;7.024;2023-09-12T14:58:55;5.57;;;2.50;;
72127;SDS011;60000;51.030;7.024;2023-09-12T15:01:20;6.00;;;2.90;;
72127;SDS011;60000;51.030;7.024;2023-09-12T15:03:46;6.40;;;3.15;;